Time;durP1;ratioP1;P1;durP2;ratioP2;P2;SDS_P1;SDS_P2;PMS_P1;PMS_P2;Temp;Humidity;BMP_temperature;BMP_pressure;BME280_temperature;BME280_humidity;BME280_pressure;Samples;Min_cycle;Max_cycle;Signal;HPM_P1;HPM_P2
2022/05/26 00:00:17;;;;;;;90.05;52.95;;;20.30;60.10;;;;;;4922365;28;92327;-40
2022/05/26 00:02:43;;;;;;;88.90;52.72;;;20.30;60.00;;;;;;4910339;28;91578;-42
2022/05/26 00:05:09;;;;;;;89.57;52.65;;;20.30;60.00;;;;;;4909435;28;90330;-43
2022/05/26 00:07:34;;;;;;;88.25;52.63;;;20.30;60.00;;;;;;4909018;28;93834;-45
2022/05/26 00:10:00;;;;;;;90.65;52.72;;;20.30;60.10;;;;;;4916250;28;90041;-40
2022/05/26 00:12:26;;;;;;;91.50;52.95;;;20.30;60.30;;;;;;4911037;28;94318;-41
2022/05/26 00:14:51;;;;;;;92.45;52.95;;;20.30;60.10;;;;;;4909832;28;92003;-41
2022/05/26 00:17:17;;;;;;;89.35;52.67;;;20.30;60.10;;;;;;4915867;28;94392;-40
2022/05/26 00:19:43;;;;;;;89.22;52.83;;;20.30;60.30;;;;;;4916828;28;91154;-41
2022/05/26 00:22:08;;;;;;;90.50;53.00;;;20.20;60.20;;;;;;4914191;28;89817;-40
2022/05/26 00:24:34;;;;;;;92.55;53.25;;;20.30;60.30;;;;;;4917847;28;89884;-42
2022/05/26 00:26:59;;;;;;;90.57;52.92;;;20.30;60.30;;;;;;4920058;28;94326;-42
2022/05/26 00:29:25;;;;;;;87.93;52.35;;;20.20;60.20;;;;;;4908351;28;95357;-44
2022/05/26 00:31:51;;;;;;;88.35;52.80;;;20.20;60.30;;;;;;4913873;28;92067;-41
2022/05/26 00:34:16;;;;;;;91.43;52.78;;;20.20;60.30;;;;;;4905939;28;92120;-42
2022/05/26 00:36:43;;;;;;;91.22;52.97;;;20.20;60.40;;;;;;4908756;28;89668;-43
2022/05/26 00:39:10;;;;;;;89.10;52.38;;;20.20;60.30;;;;;;4915643;28;92314;-44
2022/05/26 00:41:41;;;;;;;92.15;52.88;;;20.20;60.40;;;;;;4908194;28;92064;-42
2022/05/26 00:44:07;;;;;;;;;;;20.20;60.10;;;;;;4918410;28;90316;-43
2022/05/26 00:46:37;;;;;;;90.90;52.83;;;20.20;60.40;;;;;;4923498;28;92357;-42
2022/05/26 00:49:03;;;;;;;91.20;53.17;;;20.20;60.30;;;;;;4915101;28;92986;-41
2022/05/26 00:51:36;;;;;;;90.60;52.83;;;20.20;60.40;;;;;;4913812;28;92366;-45
2022/05/26 00:54:05;;;;;;;88.30;52.72;;;20.20;60.50;;;;;;4904298;28;94243;-44
2022/05/26 00:57:08;;;;;;;90.70;52.47;;;20.20;60.40;;;;;;4921467;28;94543;-46
2022/05/26 01:00:00;;;;;;;90.43;52.67;;;20.20;60.40;;;;;;4925977;28;90583;-42
2022/05/26 01:02:33;;;;;;;89.82;52.63;;;20.10;60.40;;;;;;4913785;28;92578;-42
2022/05/26 01:05:03;;;;;;;92.30;53.20;;;20.10;60.30;;;;;;4911833;28;90736;-41
2022/05/26 01:07:34;;;;;;;91.15;53.05;;;20.10;60.50;;;;;;4915826;28;90002;-41
2022/05/26 01:09:59;;;;;;;92.10;53.22;;;20.10;60.50;;;;;;4925471;28;88763;-41
2022/05/26 01:12:25;;;;;;;91.60;53.05;;;20.10;60.50;;;;;;4918492;28;94884;-41
2022/05/26 01:14:56;;;;;;;90.22;52.92;;;20.10;61.20;;;;;;4924397;28;90008;-41
2022/05/26 01:17:46;;;;;;;92.97;53.15;;;20.10;60.50;;;;;;4918165;28;92342;-41
2022/05/26 01:20:36;;;;;;;91.93;53.25;;;20.10;60.40;;;;;;4921963;28;91821;-42
2022/05/26 01:23:37;;;;;;;94.50;53.33;;;20.10;60.50;;;;;;4906435;28;91084;-44
2022/05/26 01:26:20;;;;;;;90.90;52.92;;;20.10;60.50;;;;;;4911425;28;91181;-43
2022/05/26 01:28:58;;;;;;;92.38;53.08;;;20.10;60.50;;;;;;4922902;28;89979;-44
2022/05/26 01:31:45;;;;;;;93.05;53.15;;;20.10;60.60;;;;;;4914522;28;92054;-41
2022/05/26 01:34:27;;;;;;;91.40;53.40;;;20.10;60.60;;;;;;4910265;28;91879;-40
2022/05/26 01:37:22;;;;;;;90.53;52.95;;;20.10;60.60;;;;;;4909751;28;89289;-41
2022/05/26 01:39:54;;;;;;;91.63;52.88;;;20.00;60.60;;;;;;4914000;28;97090;-40
2022/05/26 01:42:31;;;;;;;;;;;20.00;60.60;;;;;;4904909;28;91700;-42
2022/05/26 01:45:15;;;;;;;88.63;52.53;;;20.00;60.60;;;;;;4909575;28;91193;-41
2022/05/26 01:47:44;;;;;;;90.68;53.10;;;20.00;60.50;;;;;;4913752;28;92391;-40
2022/05/26 01:50:41;;;;;;;89.70;52.55;;;20.10;60.60;;;;;;4910717;28;90447;-40
2022/05/26 01:53:31;;;;;;;91.60;52.92;;;20.00;60.60;;;;;;4911889;28;90366;-40
2022/05/26 01:55:59;;;;;;;88.53;52.58;;;20.10;60.60;;;;;;4918194;28;91195;-43
2022/05/26 01:58:36;;;;;;;91.68;53.03;;;20.00;60.60;;;;;;4931043;28;90697;-41
2022/05/26 02:01:08;;;;;;;88.20;52.72;;;20.00;60.70;;;;;;4925054;28;90038;-41
2022/05/26 02:03:36;;;;;;;90.85;53.15;;;20.00;60.80;;;;;;4909935;28;91545;-42
2022/05/26 02:06:33;;;;;;;93.95;53.38;;;20.00;61.60;;;;;;4920055;28;91467;-42
2022/05/26 02:09:07;;;;;;;92.03;52.83;;;19.90;60.80;;;;;;4910446;28;90667;-41
2022/05/26 02:11:45;;;;;;;92.32;52.67;;;20.00;60.80;;;;;;4906025;28;91323;-43
2022/05/26 02:14:16;;;;;;;91.18;53.58;;;19.90;60.80;;;;;;4911251;28;91364;-42
2022/05/26 02:17:06;;;;;;;90.47;52.92;;;19.90;60.80;;;;;;4918664;28;90917;-40
2022/05/26 02:19:46;;;;;;;92.20;52.78;;;20.00;60.70;;;;;;4914480;28;97064;-41
2022/05/26 02:22:34;;;;;;;92.22;53.10;;;20.00;60.70;;;;;;4910541;28;90586;-43
2022/05/26 02:25:16;;;;;;;89.57;52.65;;;20.00;60.60;;;;;;4911291;28;90549;-42
2022/05/26 02:27:46;;;;;;;93.03;53.03;;;20.00;60.70;;;;;;4912962;28;90281;-42
2022/05/26 02:30:13;;;;;;;90.63;53.13;;;19.90;60.80;;;;;;4907733;28;96452;-41
2022/05/26 02:32:51;;;;;;;92.78;53.13;;;20.00;60.80;;;;;;4908044;28;90548;-40
2022/05/26 02:35:21;;;;;;;88.13;52.40;;;19.90;60.60;;;;;;4905419;28;90610;-47
2022/05/26 02:37:50;;;;;;;89.72;52.63;;;19.90;60.80;;;;;;4907790;28;91801;-41
2022/05/26 02:40:16;;;;;;;95.22;53.63;;;19.90;60.90;;;;;;4916641;28;90039;-43
2022/05/26 02:43:04;;;;;;;88.60;52.42;;;19.90;60.90;;;;;;4914397;28;89959;-41
2022/05/26 02:45:48;;;;;;;91.88;53.00;;;19.90;60.70;;;;;;4921787;28;90926;-43
2022/05/26 02:48:22;;;;;;;90.60;53.05;;;19.90;60.90;;;;;;4918655;28;89960;-41
2022/05/26 02:51:08;;;;;;;91.57;53.15;;;19.90;60.80;;;;;;4914488;28;90534;-43
2022/05/26 02:53:42;;;;;;;89.80;52.95;;;19.90;60.80;;;;;;4912971;28;92037;-43
2022/05/26 02:56:15;;;;;;;90.82;53.13;;;19.90;60.80;;;;;;4914074;28;91109;-45
2022/05/26 02:59:16;;;;;;;91.50;52.75;;;19.90;60.90;;;;;;4919424;28;92381;-44
2022/05/26 03:01:56;;;;;;;90.30;53.08;;;19.90;60.80;;;;;;4921720;28;90039;-41
2022/05/26 03:04:35;;;;;;;89.90;52.50;;;19.90;60.90;;;;;;4908795;28;92170;-44
2022/05/26 03:07:08;;;;;;;88.80;52.35;;;19.90;60.90;;;;;;4913274;28;90922;-43
2022/05/26 03:09:36;;;;;;;97.03;53.30;;;19.90;60.90;;;;;;4906538;28;94710;-42
2022/05/26 03:12:03;;;;;;;91.47;53.00;;;19.80;60.90;;;;;;4905458;28;90123;-42
2022/05/26 03:14:28;;;;;;;91.80;52.67;;;19.80;60.90;;;;;;4916754;28;90757;-41
2022/05/26 03:16:54;;;;;;;89.07;52.80;;;19.80;60.90;;;;;;4916355;28;90025;-42
2022/05/26 03:19:20;;;;;;;92.65;52.88;;;19.80;60.80;;;;;;4901621;28;91930;-42
2022/05/26 03:21:46;;;;;;;90.70;53.17;;;19.80;61.40;;;;;;4913630;28;95749;-41
2022/05/26 03:24:12;;;;;;;91.18;53.22;;;19.80;60.90;;;;;;4912137;28;89925;-41
2022/05/26 03:26:38;;;;;;;92.82;53.47;;;19.80;61.10;;;;;;4912609;28;89984;-42
2022/05/26 03:29:05;;;;;;;93.57;53.55;;;19.70;61.10;;;;;;4913988;28;91930;-41
2022/05/26 03:31:32;;;;;;;93.68;53.05;;;19.70;61.00;;;;;;4921445;28;90949;-41
2022/05/26 03:42:13;;;;;;;93.28;53.05;;;19.70;61.20;;;;;;4923405;28;89969;-42
2022/05/26 03:44:39;;;;;;;91.15;53.00;;;19.70;61.20;;;;;;4915164;28;89884;-41
2022/05/26 03:47:05;;;;;;;89.72;52.55;;;19.70;61.20;;;;;;4921982;28;88747;-40
2022/05/26 03:49:31;;;;;;;89.40;52.88;;;19.70;61.10;;;;;;4914502;28;91069;-42
2022/05/26 03:51:57;;;;;;;92.68;52.92;;;19.70;61.00;;;;;;4924501;28;91721;-42
2022/05/26 03:54:24;;;;;;;88.53;52.75;;;19.70;61.10;;;;;;4909907;28;92095;-42
2022/05/26 03:56:49;;;;;;;90.57;52.92;;;19.70;61.00;;;;;;4907940;28;98089;-41
2022/05/26 03:59:15;;;;;;;94.30;53.22;;;19.70;61.30;;;;;;4908014;28;92602;-41
2022/05/26 04:01:41;;;;;;;93.75;53.00;;;19.70;61.30;;;;;;4917279;28;90263;-40
2022/05/26 04:04:07;;;;;;;90.40;53.05;;;19.70;61.00;;;;;;4922153;28;90264;-43
2022/05/26 04:06:32;;;;;;;90.45;52.70;;;19.70;61.20;;;;;;4926314;28;90746;-40
2022/05/26 04:08:59;;;;;;;93.75;53.22;;;19.70;61.10;;;;;;4917764;28;91557;-42
2022/05/26 04:11:25;;;;;;;91.68;52.92;;;19.70;61.20;;;;;;4922166;28;89847;-42
2022/05/26 04:13:51;;;;;;;95.88;53.83;;;19.70;61.20;;;;;;4916339;28;94687;-42
2022/05/26 04:16:18;;;;;;;90.88;52.70;;;19.70;61.10;;;;;;4917186;28;89237;-41
2022/05/26 04:18:44;;;;;;;89.88;52.92;;;19.70;61.00;;;;;;4909443;28;91728;-41
2022/05/26 04:21:12;;;;;;;89.68;52.55;;;19.70;61.20;;;;;;4913850;28;92152;-41
2022/05/26 04:23:38;;;;;;;93.90;53.25;;;19.60;61.00;;;;;;4909808;28;91479;-44
2022/05/26 04:26:05;;;;;;;91.05;52.88;;;19.60;61.10;;;;;;4915900;28;91993;-41
2022/05/26 04:28:32;;;;;;;90.18;52.95;;;19.70;61.00;;;;;;4913365;28;90792;-43
2022/05/26 04:30:58;;;;;;;89.45;53.33;;;19.70;61.00;;;;;;4915964;28;91538;-42
2022/05/26 04:33:24;;;;;;;92.03;52.97;;;19.70;61.20;;;;;;4908479;28;97089;-40
2022/05/26 04:35:49;;;;;;;93.82;52.90;;;19.70;60.90;;;;;;4909608;28;89015;-41
2022/05/26 04:38:15;;;;;;;93.10;53.03;;;19.70;60.90;;;;;;4908517;28;91313;-42
2022/05/26 04:40:41;;;;;;;91.03;53.05;;;19.70;61.00;;;;;;4909044;28;91765;-44
2022/05/26 04:43:07;;;;;;;94.35;53.13;;;19.70;61.00;;;;;;4914780;28;91502;-42
2022/05/26 04:45:33;;;;;;;92.28;53.22;;;19.60;61.00;;;;;;4912013;28;96186;-42
2022/05/26 04:47:58;;;;;;;89.47;52.78;;;19.70;61.00;;;;;;4910246;28;95159;-41
2022/05/26 04:50:25;;;;;;;91.90;53.33;;;19.70;61.00;;;;;;4914856;28;91165;-45
2022/05/26 04:52:50;;;;;;;88.72;52.50;;;19.70;61.00;;;;;;4911532;28;90186;-41
2022/05/26 04:55:17;;;;;;;90.53;53.25;;;19.70;60.70;;;;;;4910369;28;92729;-44
2022/05/26 04:57:43;;;;;;;87.97;52.28;;;19.70;60.60;;;;;;4924823;28;90576;-41
2022/05/26 05:00:14;;;;;;;91.47;53.13;;;19.70;60.70;;;;;;4908582;28;89480;-41
2022/05/26 05:02:40;;;;;;;92.77;52.90;;;19.70;60.70;;;;;;4915856;28;93339;-41
2022/05/26 05:05:06;;;;;;;90.13;52.78;;;19.70;60.80;;;;;;4908778;28;90479;-43
2022/05/26 05:07:32;;;;;;;91.45;53.22;;;19.70;60.70;;;;;;4918184;28;91538;-40
2022/05/26 05:09:58;;;;;;;90.38;52.67;;;19.70;60.80;;;;;;4916730;28;90707;-42
2022/05/26 05:12:24;;;;;;;92.50;53.13;;;19.70;60.70;;;;;;4911011;28;90776;-41
2022/05/26 05:14:52;;;;;;;87.82;52.58;;;19.70;60.70;;;;;;4914241;28;95602;-40
2022/05/26 05:17:19;;;;;;;93.13;52.83;;;19.70;60.70;;;;;;4913916;28;93320;-41
2022/05/26 05:19:47;;;;;;;92.45;53.33;;;19.80;60.70;;;;;;4914822;28;91697;-42
2022/05/26 05:22:50;;;;;;;90.90;53.05;;;19.80;60.50;;;;;;4917355;28;90345;-40
2022/05/26 05:25:23;;;;;;;88.72;52.75;;;19.80;60.50;;;;;;4911375;28;91003;-40
2022/05/26 05:28:00;;;;;;;88.80;52.97;;;19.80;60.60;;;;;;4921914;28;92775;-41
2022/05/26 05:30:31;;;;;;;90.50;52.92;;;19.80;60.60;;;;;;4918043;28;95705;-43
2022/05/26 05:33:02;;;;;;;92.03;53.25;;;19.80;60.50;;;;;;4914265;28;91469;-43
2022/05/26 05:35:33;;;;;;;91.07;53.15;;;19.80;60.50;;;;;;4902827;28;91618;-42
2022/05/26 05:38:01;;;;;;;90.97;52.72;;;19.80;60.50;;;;;;4915049;28;90341;-41
2022/05/26 05:40:27;;;;;;;96.00;53.08;;;19.80;60.50;;;;;;4912586;28;91747;-41
2022/05/26 05:42:53;;;;;;;91.45;53.25;;;19.80;60.40;;;;;;4915351;28;91686;-41
2022/05/26 05:45:18;;;;;;;90.63;52.63;;;19.80;60.60;;;;;;4913973;28;91159;-41
2022/05/26 05:47:44;;;;;;;92.75;52.97;;;19.80;60.40;;;;;;4919721;28;91178;-41
2022/05/26 05:50:10;;;;;;;90.53;53.15;;;19.80;60.40;;;;;;4919586;28;89495;-41
2022/05/26 05:52:36;;;;;;;89.32;52.53;;;19.80;60.30;;;;;;4913191;28;90620;-42
2022/05/26 05:55:04;;;;;;;89.05;52.58;;;19.80;60.40;;;;;;4910781;28;91997;-40
2022/05/26 05:57:30;;;;;;;91.30;52.90;;;19.80;60.30;;;;;;4910451;28;90650;-42
2022/05/26 05:59:55;;;;;;;92.95;53.40;;;19.80;60.20;;;;;;4916110;28;92323;-43
2022/05/26 06:02:21;;;;;;;94.00;53.25;;;19.80;60.30;;;;;;4913615;28;92244;-42
2022/05/26 06:04:47;;;;;;;90.40;52.50;;;19.80;60.20;;;;;;4921248;28;90488;-42
2022/05/26 06:07:18;;;;;;;91.93;53.13;;;19.90;60.30;;;;;;4919279;28;90347;-41
2022/05/26 06:09:45;;;;;;;;;;;19.90;60.10;;;;;;4910831;28;92419;-41
2022/05/26 06:12:11;;;;;;;90.65;53.15;;;19.90;60.00;;;;;;4917527;28;93207;-40
2022/05/26 06:14:37;;;;;;;90.07;53.15;;;20.00;59.80;;;;;;4913778;28;89674;-40
2022/05/26 06:17:03;;;;;;;90.15;53.08;;;20.00;59.80;;;;;;4917145;28;90333;-40
2022/05/26 06:19:29;;;;;;;90.85;52.95;;;20.00;59.70;;;;;;4910784;28;90101;-40
2022/05/26 06:21:55;;;;;;;90.03;52.88;;;20.10;59.60;;;;;;4904193;28;92011;-41
2022/05/26 06:24:25;;;;;;;93.35;53.33;;;20.10;59.50;;;;;;4918076;28;91187;-41
2022/05/26 06:26:51;;;;;;;92.65;53.08;;;20.20;59.30;;;;;;4909124;28;91009;-41
2022/05/26 06:37:49;;;;;;;90.95;53.30;;;20.30;59.00;;;;;;4917284;28;89868;-43
2022/05/26 06:40:15;;;;;;;91.88;53.65;;;20.30;58.70;;;;;;4920876;28;89311;-40
2022/05/26 06:42:43;;;;;;;89.95;52.88;;;20.40;58.70;;;;;;4913717;28;91441;-41
2022/05/26 06:45:09;;;;;;;93.85;53.08;;;20.40;58.60;;;;;;4911340;28;91045;-42
2022/05/26 06:47:34;;;;;;;92.28;53.50;;;20.40;58.50;;;;;;4908286;28;90886;-42
2022/05/26 06:50:00;;;;;;;92.25;53.45;;;20.50;58.40;;;;;;4911700;28;91808;-41
2022/05/26 06:52:27;;;;;;;93.45;53.88;;;20.50;58.20;;;;;;4911273;28;90360;-41
2022/05/26 06:54:54;;;;;;;91.88;53.40;;;20.50;58.10;;;;;;4916896;28;90378;-40
2022/05/26 06:57:19;;;;;;;93.03;53.47;;;20.60;58.30;;;;;;4923114;28;89760;-41
2022/05/26 06:59:45;;;;;;;92.05;53.55;;;20.60;58.40;;;;;;4918584;28;90109;-42
2022/05/26 07:02:12;;;;;;;89.20;53.25;;;20.60;58.10;;;;;;4916188;28;90114;-41
2022/05/26 07:04:40;;;;;;;91.28;53.40;;;20.70;58.10;;;;;;4906085;28;95800;-41
2022/05/26 07:07:06;;;;;;;92.82;53.53;;;20.70;57.90;;;;;;4913237;28;90332;-42
2022/05/26 07:09:32;;;;;;;93.00;53.53;;;20.70;57.80;;;;;;4911206;28;90446;-40
2022/05/26 07:11:58;;;;;;;89.82;53.05;;;20.70;57.70;;;;;;4909204;28;92366;-41
2022/05/26 07:14:25;;;;;;;94.75;53.55;;;20.80;57.50;;;;;;4914214;28;94619;-40
2022/05/26 07:16:50;;;;;;;91.63;53.38;;;20.90;57.40;;;;;;4914205;28;91268;-42
2022/05/26 07:19:18;;;;;;;91.90;54.00;;;20.90;57.50;;;;;;4908125;28;90707;-41
2022/05/26 07:21:46;;;;;;;91.65;53.78;;;20.90;57.50;;;;;;4903789;28;90733;-42
2022/05/26 07:24:13;;;;;;;90.65;53.38;;;20.90;57.40;;;;;;4911630;28;90785;-43
2022/05/26 07:26:39;;;;;;;90.75;53.20;;;21.00;57.40;;;;;;4918354;28;90556;-40
2022/05/26 07:29:05;;;;;;;92.05;53.58;;;20.90;57.20;;;;;;4916304;28;89498;-40
2022/05/26 07:31:30;;;;;;;90.43;53.53;;;20.90;57.20;;;;;;4913538;28;90302;-40
2022/05/26 07:33:56;;;;;;;91.97;53.45;;;21.00;57.20;;;;;;4913265;28;91572;-41
2022/05/26 07:41:59;;;;;;;93.07;53.70;;;21.10;57.10;;;;;;4908881;28;96315;-40
2022/05/26 07:44:26;;;;;;;90.97;53.30;;;21.10;56.70;;;;;;4914586;28;91422;-40
2022/05/26 07:46:52;;;;;;;91.63;53.70;;;21.10;56.90;;;;;;4918417;28;91558;-40
2022/05/26 07:49:17;;;;;;;90.90;53.60;;;21.20;56.60;;;;;;4912202;28;92133;-41
2022/05/26 07:51:43;;;;;;;93.55;53.83;;;21.20;56.70;;;;;;4908770;28;91687;-41
2022/05/26 07:54:09;;;;;;;93.03;53.85;;;21.20;56.60;;;;;;4905867;28;90421;-40
2022/05/26 07:56:39;;;;;;;93.30;53.95;;;21.20;56.70;;;;;;4914295;28;93427;-41
2022/05/26 07:59:06;;;;;;;92.28;53.75;;;21.30;56.60;;;;;;4915907;28;91714;-41
2022/05/26 08:01:33;;;;;;;92.88;53.72;;;21.30;56.40;;;;;;4914465;28;90990;-40
2022/05/26 08:03:58;;;;;;;90.93;53.75;;;21.30;56.40;;;;;;4919395;28;89877;-42
2022/05/26 08:06:24;;;;;;;94.95;54.13;;;21.30;57.40;;;;;;4916828;28;90012;-39
2022/05/26 08:08:51;;;;;;;97.25;54.53;;;21.40;57.30;;;;;;4906397;28;91578;-41
2022/05/26 08:11:17;;;;;;;94.22;53.75;;;21.50;57.60;;;;;;4916289;28;90624;-40
2022/05/26 08:13:42;;;;;;;94.82;54.28;;;21.60;57.70;;;;;;4920923;28;93193;-40
2022/05/26 08:16:08;;;;;;;97.78;54.35;;;21.60;58.20;;;;;;4909978;28;91196;-40
2022/05/26 08:18:35;;;;;;;97.38;54.38;;;21.60;58.70;;;;;;4901528;28;92268;-40
2022/05/26 08:21:12;;;;;;;99.22;54.63;;;21.70;58.60;;;;;;4909553;28;92343;-41
2022/05/26 08:23:39;;;;;;;96.03;53.83;;;21.70;58.70;;;;;;4910472;28;90751;-42
2022/05/26 08:26:05;;;;;;;98.85;54.35;;;21.70;58.10;;;;;;4912841;28;92333;-43
2022/05/26 08:28:31;;;;;;;95.80;54.20;;;21.70;58.90;;;;;;4907751;28;92879;-40
2022/05/26 08:30:58;;;;;;;95.10;54.42;;;21.70;58.30;;;;;;4899474;28;95847;-40
2022/05/26 08:33:24;;;;;;;95.72;54.13;;;21.70;58.20;;;;;;4908552;28;93375;-40
2022/05/26 08:35:49;;;;;;;97.07;54.38;;;21.60;58.50;;;;;;4908824;28;89909;-42
2022/05/26 08:38:15;;;;;;;97.05;54.45;;;21.60;58.50;;;;;;4906044;28;90546;-40
2022/05/26 08:40:47;;;;;;;97.65;54.40;;;21.60;58.30;;;;;;4901398;28;90004;-40
2022/05/26 08:43:20;;;;;;;99.53;54.70;;;21.70;58.00;;;;;;4907822;28;90336;-40
2022/05/26 08:45:49;;;;;;;96.47;54.47;;;21.70;57.90;;;;;;4915658;28;90736;-42
2022/05/26 08:48:48;;;;;;;97.30;54.90;;;21.80;57.70;;;;;;4923927;28;89898;-43
2022/05/26 08:51:30;;;;;;;99.60;54.58;;;21.80;57.40;;;;;;4918063;28;92033;-41
2022/05/26 08:53:58;;;;;;;97.03;54.80;;;21.80;57.20;;;;;;4914658;28;92516;-42
2022/05/26 08:56:27;;;;;;;99.95;55.10;;;21.80;57.40;;;;;;4927890;28;90145;-41
2022/05/26 08:58:59;;;;;;;97.13;55.35;;;21.90;57.90;;;;;;4927786;28;89658;-40
2022/05/26 09:01:28;;;;;;;98.47;54.83;;;22.00;57.00;;;;;;4929386;28;94347;-41
2022/05/26 09:03:54;;;;;;;100.20;54.95;;;22.00;56.70;;;;;;4923582;28;90159;-40
2022/05/26 09:06:21;;;;;;;98.22;54.97;;;22.10;56.60;;;;;;4919425;28;89786;-41
2022/05/26 09:14:33;;;;;;;99.85;55.45;;;22.20;56.20;;;;;;4918864;28;89878;-41
2022/05/26 09:17:03;;;;;;;102.85;55.35;;;22.20;56.30;;;;;;4925253;28;93128;-41
2022/05/26 09:19:45;;;;;;;99.95;55.42;;;22.30;55.80;;;;;;4921217;28;90035;-42
2022/05/26 09:22:27;;;;;;;96.80;54.63;;;22.30;55.70;;;;;;4924061;28;91769;-42
2022/05/26 09:24:52;;;;;;;;;;;22.30;56.10;;;;;;4918479;28;91278;-41
2022/05/26 09:27:34;;;;;;;100.15;55.10;;;22.30;55.70;;;;;;4932125;28;90534;-40
2022/05/26 09:30:33;;;;;;;98.78;55.40;;;22.40;55.40;;;;;;4905836;28;91313;-45
2022/05/26 09:32:59;;;;;;;98.28;55.03;;;22.40;55.30;;;;;;4908138;28;92772;-43
2022/05/26 09:35:34;;;;;;;98.47;55.25;;;22.40;55.00;;;;;;4917820;28;89222;-41
2022/05/26 09:38:02;;;;;;;101.93;55.55;;;22.50;55.10;;;;;;4906611;28;95863;-40
2022/05/26 09:40:35;;;;;;;99.32;55.10;;;22.50;55.00;;;;;;4916985;28;89807;-42
2022/05/26 09:43:09;;;;;;;102.70;55.85;;;22.60;55.00;;;;;;4917696;28;91011;-41
2022/05/26 09:45:50;;;;;;;99.30;55.40;;;22.60;54.70;;;;;;4918021;28;91636;-42
2022/05/26 09:48:21;;;;;;;99.30;55.23;;;22.70;54.70;;;;;;4918732;28;90039;-41
2022/05/26 09:50:53;;;;;;;97.68;55.38;;;22.70;54.60;;;;;;4908757;28;90036;-43
2022/05/26 09:53:40;;;;;;;98.38;55.30;;;22.60;54.50;;;;;;4901294;28;92391;-44
2022/05/26 09:56:07;;;;;;;99.13;55.28;;;22.70;54.60;;;;;;4922745;28;90791;-41
2022/05/26 09:58:39;;;;;;;100.80;55.45;;;22.80;54.40;;;;;;4917675;28;90005;-40
2022/05/26 10:01:28;;;;;;;98.00;54.95;;;22.80;54.30;;;;;;4921988;28;90453;-44
2022/05/26 10:04:03;;;;;;;100.35;55.70;;;22.70;54.30;;;;;;4916885;28;89872;-41
2022/05/26 10:06:42;;;;;;;98.10;55.20;;;22.70;54.50;;;;;;4913886;28;90089;-41
2022/05/26 10:09:17;;;;;;;98.43;55.03;;;22.70;54.70;;;;;;4917018;28;91969;-41
2022/05/26 10:11:56;;;;;;;97.85;55.05;;;22.70;54.70;;;;;;4908753;28;90954;-41
2022/05/26 10:14:33;;;;;;;97.88;55.67;;;22.70;54.60;;;;;;4907906;28;91174;-41
2022/05/26 10:17:07;;;;;;;100.50;55.50;;;22.80;54.30;;;;;;4911068;28;90256;-42
2022/05/26 10:20:21;;;;;;;97.80;55.22;;;22.90;54.20;;;;;;4904274;28;91017;-40
2022/05/26 10:23:08;;;;;;;100.70;55.28;;;22.90;54.10;;;;;;4909445;28;90164;-40
2022/05/26 10:25:43;;;;;;;98.13;55.30;;;22.90;54.00;;;;;;4904344;28;94380;-42
2022/05/26 10:28:32;;;;;;;99.07;55.28;;;23.00;54.00;;;;;;4900387;28;90130;-40
2022/05/26 10:31:23;;;;;;;98.75;55.17;;;23.00;54.10;;;;;;4912289;28;90003;-40
2022/05/26 10:34:14;;;;;;;99.15;54.85;;;22.90;54.00;;;;;;4910093;28;90837;-41
2022/05/26 10:37:08;;;;;;;97.63;55.40;;;23.00;54.00;;;;;;4900523;28;91168;-41
2022/05/26 10:40:06;;;;;;;100.00;55.33;;;23.00;54.40;;;;;;4901958;28;90936;-42
2022/05/26 10:42:47;;;;;;;98.75;55.47;;;23.00;53.90;;;;;;4905922;28;90447;-40
2022/05/26 10:45:16;;;;;;;;;;;23.00;53.90;;;;;;4906548;28;94046;-42
2022/05/26 10:48:05;;;;;;;96.95;55.10;;;23.10;53.60;;;;;;4917567;28;90881;-42
2022/05/26 10:50:37;;;;;;;98.47;55.20;;;23.10;53.60;;;;;;4911823;28;90432;-41
2022/05/26 10:53:41;;;;;;;98.78;55.28;;;23.10;53.50;;;;;;4911167;28;89891;-41
2022/05/26 10:56:13;;;;;;;99.13;55.42;;;23.10;53.60;;;;;;4907325;28;90150;-40
2022/05/26 10:58:44;;;;;;;99.78;55.33;;;23.10;53.50;;;;;;4915532;28;95399;-41
2022/05/26 11:01:34;;;;;;;97.15;55.10;;;23.20;53.30;;;;;;4911060;28;92155;-40
2022/05/26 11:04:12;;;;;;;100.90;55.63;;;23.20;53.50;;;;;;4909296;28;92016;-40
2022/05/26 11:06:41;;;;;;;98.72;55.65;;;23.20;53.40;;;;;;4904144;28;90978;-40
2022/05/26 11:09:13;;;;;;;100.07;55.65;;;23.30;53.30;;;;;;4907192;28;91661;-43
2022/05/26 11:11:58;;;;;;;98.60;55.80;;;23.30;53.10;;;;;;4907346;28;92551;-41
2022/05/26 11:17:36;;;;;;;98.00;55.47;;;23.50;52.80;;;;;;4915484;28;90811;-40
2022/05/26 11:20:16;;;;;;;99.38;55.50;;;23.60;52.80;;;;;;4914244;28;90909;-41
2022/05/26 11:22:45;;;;;;;102.15;56.00;;;23.60;52.60;;;;;;4914526;28;91711;-42
2022/05/26 11:25:15;;;;;;;100.95;55.80;;;23.60;52.90;;;;;;4911513;28;90198;-41
2022/05/26 11:27:43;;;;;;;98.40;55.75;;;23.60;52.90;;;;;;4913968;28;95474;-41
2022/05/26 11:38:50;;;;;;;99.93;55.85;;;23.60;52.70;;;;;;4913787;28;91164;-41
2022/05/26 11:41:29;;;;;;;98.45;55.67;;;23.70;52.50;;;;;;4915979;28;91278;-44
2022/05/26 11:44:00;;;;;;;101.75;56.05;;;23.80;52.50;;;;;;4913942;28;94176;-41
2022/05/26 11:46:49;;;;;;;100.10;56.00;;;23.80;52.40;;;;;;4912927;28;90637;-41
2022/05/26 11:49:56;;;;;;;100.32;55.88;;;23.80;52.20;;;;;;4919997;28;95230;-41
2022/05/26 11:52:37;;;;;;;98.65;55.78;;;23.90;52.20;;;;;;4914163;28;91958;-43
2022/05/26 11:55:11;;;;;;;98.72;56.00;;;23.80;52.20;;;;;;4911359;28;91970;-40
2022/05/26 11:57:43;;;;;;;100.22;56.08;;;23.90;52.20;;;;;;4905081;28;92250;-40
2022/05/26 12:00:14;;;;;;;99.75;55.85;;;24.00;52.00;;;;;;4918686;28;90066;-42
2022/05/26 12:02:40;;;;;;;;;;;24.00;51.90;;;;;;4908468;28;92418;-41
2022/05/26 12:05:28;;;;;;;101.30;55.97;;;24.00;51.80;;;;;;4913834;28;94220;-41
2022/05/26 12:07:54;;;;;;;99.97;55.40;;;24.00;51.80;;;;;;4923094;28;90453;-40
2022/05/26 12:10:26;;;;;;;98.78;55.35;;;24.00;51.80;;;;;;4925061;28;90672;-41
2022/05/26 12:13:27;;;;;;;97.15;55.22;;;24.00;51.80;;;;;;4919174;28;91190;-41
2022/05/26 12:16:14;;;;;;;98.47;55.87;;;24.00;51.80;;;;;;4923803;28;91121;-41
2022/05/26 12:19:04;;;;;;;97.70;55.25;;;24.00;51.90;;;;;;4926228;28;89539;-41
2022/05/26 12:21:29;;;;;;;99.25;55.72;;;24.00;51.70;;;;;;4924596;28;91919;-40
2022/05/26 12:23:58;;;;;;;98.85;55.78;;;24.10;51.70;;;;;;4925970;28;91271;-41
2022/05/26 12:26:28;;;;;;;97.75;55.70;;;24.10;51.60;;;;;;4921943;28;91214;-40
2022/05/26 12:28:55;;;;;;;98.93;55.87;;;24.20;51.40;;;;;;4924465;28;89853;-42
2022/05/26 12:31:21;;;;;;;97.50;55.55;;;24.20;51.40;;;;;;4911673;28;90659;-41
2022/05/26 12:34:02;;;;;;;97.20;55.50;;;24.20;51.40;;;;;;4917602;28;90734;-43
2022/05/26 12:36:44;;;;;;;97.15;55.40;;;24.20;51.30;;;;;;4905351;28;91695;-41
2022/05/26 12:39:43;;;;;;;97.40;55.95;;;24.30;51.20;;;;;;4909476;28;92037;-44
2022/05/26 12:42:29;;;;;;;97.68;55.47;;;24.30;51.10;;;;;;4916214;28;90885;-40
2022/05/26 12:45:20;;;;;;;97.88;55.42;;;24.30;51.00;;;;;;4914156;28;90964;-41
2022/05/26 12:48:14;;;;;;;96.70;55.47;;;24.30;51.10;;;;;;4907203;28;91880;-40
2022/05/26 12:50:44;;;;;;;97.80;55.60;;;24.30;51.00;;;;;;4907692;28;91109;-43
2022/05/26 12:53:39;;;;;;;98.75;55.58;;;24.30;51.00;;;;;;4902322;28;92428;-42
2022/05/26 12:56:13;;;;;;;98.20;55.90;;;24.30;51.00;;;;;;4912147;28;89952;-43
2022/05/26 12:58:47;;;;;;;96.35;55.45;;;24.40;50.90;;;;;;4925300;28;90319;-41
2022/05/26 13:01:14;;;;;;;96.95;55.45;;;24.40;50.90;;;;;;4912444;28;90368;-44
2022/05/26 13:03:58;;;;;;;97.35;55.58;;;24.40;50.90;;;;;;4911073;28;92999;-41
2022/05/26 13:06:39;;;;;;;97.82;55.70;;;24.40;50.90;;;;;;4914456;28;90825;-40
2022/05/26 13:09:10;;;;;;;;;;;24.40;51.00;;;;;;4913483;28;90096;-42
2022/05/26 13:11:42;;;;;;;;;;;24.40;50.90;;;;;;4918049;28;93865;-45
2022/05/26 13:14:14;;;;;;;97.25;55.03;;;24.40;51.00;;;;;;4913053;28;91533;-42
2022/05/26 13:16:41;;;;;;;96.93;55.55;;;24.30;50.90;;;;;;4907884;28;96786;-41
2022/05/26 13:19:14;;;;;;;96.95;55.50;;;24.30;51.10;;;;;;4911578;28;92963;-41
2022/05/26 13:21:42;;;;;;;101.65;55.88;;;24.40;51.00;;;;;;4916754;28;92028;-43
2022/05/26 13:24:15;;;;;;;97.47;55.70;;;24.40;50.90;;;;;;4912197;28;91993;-42
2022/05/26 13:26:42;;;;;;;100.47;55.85;;;24.40;50.80;;;;;;4911560;28;91585;-43
2022/05/26 13:29:09;;;;;;;97.38;55.70;;;24.50;50.80;;;;;;4914048;28;92135;-41
2022/05/26 13:34:27;;;;;;;96.07;55.28;;;24.50;50.80;;;;;;4913954;28;89473;-41
2022/05/26 13:36:53;;;;;;;97.13;55.55;;;24.50;50.80;;;;;;4908287;28;90431;-41